Time;durP1;ratioP1;P1;durP2;ratioP2;P2;SDS_P1;SDS_P2;PMS_P1;PMS_P2;Temp;Humidity;BMP_temperature;BMP_pressure;BME280_temperature;BME280_humidity;BME280_pressure;Samples;Min_cycle;Max_cycle;Signal;HPM_P1;HPM_P2
2023/07/16 00:00:04;;;;;;;2.47;1.83;;;;;;;25.58;44.61;100742.72;4962775;28;20046;-67
2023/07/16 00:02:31;;;;;;;4.13;2.15;;;;;;;25.56;44.62;100740.28;4965694;28;20048;-66
2023/07/16 00:04:57;;;;;;;2.80;1.63;;;;;;;25.55;44.57;100748.50;4968771;28;20445;-67
2023/07/16 00:07:22;;;;;;;4.15;2.20;;;;;;;25.52;44.58;100747.09;4967293;28;20784;-67
2023/07/16 00:09:48;;;;;;;3.05;1.95;;;;;;;25.47;45.01;100746.09;4967600;28;20043;-67
2023/07/16 00:12:13;;;;;;;3.40;1.73;;;;;;;25.42;44.78;100746.75;4964547;28;20414;-66
2023/07/16 00:14:39;;;;;;;3.25;1.90;;;;;;;25.45;44.94;100756.16;4965546;28;20061;-66
2023/07/16 00:17:04;;;;;;;3.33;1.95;;;;;;;25.44;44.65;100752.69;4967687;28;20508;-67
2023/07/16 00:19:30;;;;;;;3.63;1.90;;;;;;;25.42;44.71;100759.28;4966286;28;20094;-66
2023/07/16 00:21:55;;;;;;;2.50;1.83;;;;;;;25.38;45.01;100752.75;4965717;28;20046;-67
2023/07/16 00:24:21;;;;;;;4.30;2.20;;;;;;;25.38;45.09;100753.56;4962861;28;20047;-66
2023/07/16 00:26:46;;;;;;;3.97;2.00;;;;;;;25.35;45.08;100751.34;4965082;28;20043;-67
2023/07/16 00:29:12;;;;;;;4.57;2.00;;;;;;;25.36;45.21;100749.50;4964712;28;20039;-67
2023/07/16 00:31:37;;;;;;;3.65;1.88;;;;;;;25.32;44.79;100742.97;4967466;28;20078;-67
2023/07/16 00:34:03;;;;;;;6.70;2.42;;;;;;;25.28;45.52;100750.56;4967842;28;20045;-67
2023/07/16 00:36:28;;;;;;;3.80;2.20;;;;;;;25.27;45.21;100749.75;4968298;28;20045;-67
2023/07/16 00:38:54;;;;;;;3.90;1.92;;;;;;;25.25;45.29;100740.34;4968609;28;20042;-66
2023/07/16 00:41:20;;;;;;;3.67;2.28;;;;;;;25.26;45.00;100744.63;4969739;28;20034;-67
2023/07/16 00:43:45;;;;;;;2.85;1.60;;;;;;;25.24;45.20;100747.53;4963448;28;20537;-67
2023/07/16 00:46:12;;;;;;;5.40;2.33;;;;;;;25.26;45.07;100747.31;4967717;28;20046;-67
2023/07/16 00:48:37;;;;;;;2.70;1.70;;;;;;;25.19;45.21;100744.69;4966417;28;20520;-67
2023/07/16 00:51:04;;;;;;;3.08;2.05;;;;;;;25.24;45.33;100734.19;4965397;28;20063;-67
2023/07/16 00:53:30;;;;;;;4.50;1.90;;;;;;;25.20;45.14;100743.66;4967657;28;20043;-66
2023/07/16 00:55:56;;;;;;;4.78;1.92;;;;;;;25.20;45.31;100737.53;4971972;28;20461;-67
2023/07/16 00:58:21;;;;;;;5.97;2.20;;;;;;;25.18;45.52;100731.59;4967541;28;20401;-67
2023/07/16 01:00:47;;;;;;;3.40;1.90;;;;;;;25.17;45.58;100732.63;4965882;28;20038;-67
2023/07/16 01:03:14;;;;;;;3.55;2.00;;;;;;;25.15;45.37;100735.53;4968080;28;20729;-66
2023/07/16 01:06:07;;;;;;;3.95;1.95;;;;;;;25.13;45.60;100726.09;4968448;28;20026;-66
2023/07/16 01:08:45;;;;;;;3.13;1.83;;;;;;;25.12;45.35;100730.59;4967552;28;20049;-67
2023/07/16 01:11:12;;;;;;;2.25;1.77;;;;;;;25.13;45.32;100734.88;4966490;28;20172;-67
2023/07/16 01:13:38;;;;;;;3.53;2.03;;;;;;;25.10;45.37;100732.66;4967701;28;20106;-67
2023/07/16 01:16:04;;;;;;;3.88;2.00;;;;;;;25.08;45.36;100725.94;4968916;28;20042;-67
2023/07/16 01:18:29;;;;;;;3.95;2.00;;;;;;;25.08;45.52;100732.06;4969477;28;20054;-66
2023/07/16 01:20:55;;;;;;;4.10;2.10;;;;;;;25.08;45.21;100726.75;4966926;28;20047;-67
2023/07/16 01:23:39;;;;;;;4.55;2.10;;;;;;;25.06;45.46;100726.16;4969062;28;20104;-67
2023/07/16 01:26:26;;;;;;;5.05;2.72;;;;;;;25.05;45.33;100724.50;4968863;28;20492;-67
2023/07/16 01:29:03;;;;;;;4.25;2.20;;;;;;;25.06;45.18;100730.66;4968632;28;20081;-67
2023/07/16 01:31:29;;;;;;;2.95;1.75;;;;;;;25.02;45.53;100732.94;4970864;28;20034;-67
2023/07/16 01:33:56;;;;;;;3.60;2.20;;;;;;;25.00;45.32;100729.69;4965802;28;20112;-66
2023/07/16 01:36:24;;;;;;;4.50;2.40;;;;;;;25.01;45.69;100731.31;4966345;28;20436;-66
2023/07/16 01:38:49;;;;;;;6.05;2.30;;;;;;;25.00;45.40;100727.84;4966802;28;20381;-66
2023/07/16 01:41:15;;;;;;;2.10;1.63;;;;;;;25.02;45.33;100732.94;4968169;28;20073;-67
2023/07/16 01:43:40;;;;;;;5.40;2.70;;;;;;;25.00;45.29;100725.16;4983370;28;20055;-66
2023/07/16 01:46:07;;;;;;;3.40;2.10;;;;;;;24.99;45.56;100728.03;4966327;28;20039;-67
2023/07/16 01:48:35;;;;;;;2.95;2.03;;;;;;;24.98;45.65;100732.53;4968627;28;20042;-67
2023/07/16 01:51:01;;;;;;;2.60;2.03;;;;;;;24.97;45.48;100720.25;4967512;28;20047;-67
2023/07/16 01:53:27;;;;;;;3.08;2.10;;;;;;;24.95;45.61;100732.13;4969524;28;20039;-67
2023/07/16 01:55:53;;;;;;;2.17;1.88;;;;;;;24.95;45.65;100729.47;4969424;28;20447;-67
2023/07/16 01:58:18;;;;;;;4.90;2.08;;;;;;;24.90;45.82;100724.78;4966824;28;20050;-68
2023/07/16 02:00:44;;;;;;;5.57;2.30;;;;;;;24.93;45.58;100718.22;4982508;28;20035;-66
2023/07/16 02:03:09;;;;;;;2.67;1.60;;;;;;;24.91;45.57;100731.75;4964836;28;20038;-66
2023/07/16 02:05:35;;;;;;;3.63;1.70;;;;;;;24.89;45.49;100723.16;4968376;28;20038;-67
2023/07/16 02:08:01;;;;;;;2.63;1.77;;;;;;;24.91;45.83;100721.09;4966746;28;20058;-67
2023/07/16 02:10:26;;;;;;;3.53;2.15;;;;;;;24.89;45.83;100714.34;4968185;28;20317;-66
2023/07/16 02:12:52;;;;;;;3.47;1.80;;;;;;;24.89;45.87;100717.84;4967583;28;20042;-66
2023/07/16 02:15:18;;;;;;;4.40;2.10;;;;;;;24.86;45.84;100718.28;4968786;28;20074;-66
2023/07/16 02:17:44;;;;;;;2.97;2.20;;;;;;;24.87;46.00;100727.06;4969105;28;20053;-67
2023/07/16 02:20:10;;;;;;;4.97;2.38;;;;;;;24.81;45.88;100712.78;4963277;28;20047;-67
2023/07/16 02:22:38;;;;;;;6.28;2.35;;;;;;;24.80;45.95;100716.47;4968511;28;20286;-67
2023/07/16 02:25:03;;;;;;;4.90;2.05;;;;;;;24.81;45.81;100719.97;4965423;28;20073;-66
2023/07/16 02:27:29;;;;;;;3.03;1.90;;;;;;;24.76;45.96;100717.09;4965766;28;20069;-66
2023/07/16 02:29:55;;;;;;;5.63;2.05;;;;;;;24.82;45.91;100716.25;4966933;28;20047;-66
2023/07/16 02:32:21;;;;;;;4.07;2.20;;;;;;;24.77;45.76;100721.41;4965229;28;20519;-67
2023/07/16 02:34:46;;;;;;;3.88;2.03;;;;;;;24.79;45.68;100722.03;4966903;28;20046;-66
2023/07/16 02:37:12;;;;;;;2.08;1.70;;;;;;;24.75;45.98;100723.47;4967764;28;20042;-66
2023/07/16 02:39:39;;;;;;;4.15;2.17;;;;;;;24.77;45.82;100727.53;4982651;28;20043;-67
2023/07/16 02:42:04;;;;;;;5.47;2.03;;;;;;;24.76;45.94;100723.25;4969026;28;20036;-66
2023/07/16 02:44:30;;;;;;;3.10;2.10;;;;;;;24.75;45.71;100712.81;4969403;28;20047;-66
2023/07/16 02:46:56;;;;;;;5.43;2.55;;;;;;;24.73;45.74;100709.53;4963220;28;20402;-66
2023/07/16 02:49:21;;;;;;;2.95;2.28;;;;;;;24.72;45.83;100716.72;4967966;28;20055;-67
2023/07/16 02:51:47;;;;;;;5.90;2.20;;;;;;;24.73;45.63;100714.88;4966269;28;20066;-66
2023/07/16 02:54:12;;;;;;;4.65;3.03;;;;;;;24.71;45.81;100721.22;4966724;28;20042;-67
2023/07/16 02:56:38;;;;;;;8.88;2.90;;;;;;;24.69;45.63;100717.16;4962871;28;20042;-65
2023/07/16 02:59:03;;;;;;;6.47;2.88;;;;;;;24.75;46.02;100720.78;4966464;28;20042;-66
2023/07/16 03:01:29;;;;;;;2.53;2.17;;;;;;;24.69;45.53;100725.16;4964140;28;20105;-67
2023/07/16 03:03:55;;;;;;;3.33;2.10;;;;;;;24.69;45.73;100725.16;4967912;28;20046;-66
2023/07/16 03:06:22;;;;;;;4.60;2.40;;;;;;;24.68;45.67;100719.00;4968716;28;20429;-66
2023/07/16 03:08:50;;;;;;;4.13;2.30;;;;;;;24.68;45.78;100726.19;4969350;28;20057;-66
2023/07/16 03:11:17;;;;;;;3.05;2.35;;;;;;;24.69;45.53;100733.13;4982999;28;20043;-65
2023/07/16 03:13:42;;;;;;;3.75;2.20;;;;;;;24.66;45.92;100726.38;4969410;28;20078;-66
2023/07/16 03:16:08;;;;;;;4.15;2.33;;;;;;;24.67;45.56;100724.53;4966850;28;20108;-67
2023/07/16 03:18:34;;;;;;;6.50;2.80;;;;;;;24.64;45.66;100739.09;4967817;28;20421;-67
2023/07/16 03:21:00;;;;;;;4.43;2.08;;;;;;;24.64;45.77;100736.44;4967802;28;20054;-67
2023/07/16 03:23:25;;;;;;;5.18;2.90;;;;;;;24.64;45.62;100732.97;4967266;28;20078;-66
2023/07/16 03:25:52;;;;;;;3.42;2.42;;;;;;;24.64;45.47;100728.44;4966769;28;20039;-66
2023/07/16 03:28:18;;;;;;;4.32;2.65;;;;;;;24.64;45.62;100735.63;4969069;28;20035;-67
2023/07/16 03:30:48;;;;;;;5.95;2.28;;;;;;;24.57;45.53;100725.00;4963415;28;20058;-67
2023/07/16 03:33:14;;;;;;;5.82;2.42;;;;;;;24.62;45.67;100725.19;4965993;28;20478;-65
2023/07/16 03:35:41;;;;;;;4.75;2.80;;;;;;;24.62;45.81;100745.69;4969373;28;20124;-67
2023/07/16 03:38:07;;;;;;;2.72;2.30;;;;;;;24.59;45.47;100741.56;4963695;28;20061;-66
2023/07/16 03:40:33;;;;;;;3.75;2.67;;;;;;;24.61;45.60;100741.38;4967566;28;20030;-66
2023/07/16 03:42:59;;;;;;;4.57;3.10;;;;;;;24.62;45.50;100743.84;4978294;28;20138;-66
2023/07/16 03:45:25;;;;;;;3.63;2.47;;;;;;;24.61;45.45;100749.38;4963160;28;20046;-67
2023/07/16 03:47:50;;;;;;;2.92;2.33;;;;;;;24.59;45.74;100748.75;4963811;28;20046;-67
2023/07/16 03:50:16;;;;;;;4.55;2.15;;;;;;;24.58;45.78;100749.78;4965064;28;20054;-66
2023/07/16 03:52:43;;;;;;;6.20;2.90;;;;;;;24.57;45.68;100750.81;4964976;28;20054;-65
2023/07/16 03:55:09;;;;;;;5.90;2.88;;;;;;;24.58;45.71;100757.75;4967769;28;20039;-66
2023/07/16 03:57:35;;;;;;;4.57;3.10;;;;;;;24.54;45.61;100757.38;4966715;28;20055;-67
2023/07/16 04:00:02;;;;;;;5.70;2.60;;;;;;;24.54;45.70;100756.56;4967719;28;20046;-67
2023/07/16 04:02:28;;;;;;;4.13;2.45;;;;;;;24.55;45.84;100764.31;4962233;28;20121;-66
2023/07/16 04:04:55;;;;;;;5.07;2.50;;;;;;;24.54;45.68;100767.22;4965086;28;20094;-66
2023/07/16 04:07:20;;;;;;;5.70;2.95;;;;;;;24.54;45.55;100753.91;4968569;28;20081;-68
2023/07/16 04:09:46;;;;;;;4.65;2.40;;;;;;;24.54;45.56;100768.03;4965694;28;20034;-66
2023/07/16 04:12:11;;;;;;;4.57;2.70;;;;;;;24.53;45.57;100762.91;4966651;28;20043;-66
2023/07/16 04:14:37;;;;;;;5.55;2.67;;;;;;;24.56;45.42;100768.63;4965904;28;20089;-66
2023/07/16 04:17:03;;;;;;;4.18;2.60;;;;;;;24.53;45.61;100769.06;4965107;28;20047;-67
2023/07/16 04:19:28;;;;;;;3.58;2.70;;;;;;;24.51;45.59;100765.78;4967639;28;20754;-67
2023/07/16 04:21:54;;;;;;;4.32;2.30;;;;;;;24.52;45.50;100772.75;4966110;28;20120;-68
2023/07/16 04:24:19;;;;;;;4.97;2.78;;;;;;;24.51;45.46;100764.97;4968251;28;20042;-67
2023/07/16 04:26:45;;;;;;;5.13;2.53;;;;;;;24.51;45.60;100773.78;4965538;28;20039;-67
2023/07/16 04:29:10;;;;;;;6.65;2.90;;;;;;;24.52;45.63;100758.63;4970924;28;20079;-65
2023/07/16 04:31:35;;;;;;;4.65;2.72;;;;;;;24.51;45.56;100771.13;4965441;28;20457;-66
2023/07/16 04:34:01;;;;;;;6.95;3.22;;;;;;;24.48;45.51;100776.88;4966986;28;20038;-67
2023/07/16 04:36:26;;;;;;;4.97;2.63;;;;;;;24.48;45.67;100784.03;4968357;28;20421;-66
2023/07/16 04:38:52;;;;;;;4.45;2.58;;;;;;;24.50;45.64;100789.97;4964677;28;20097;-66
2023/07/16 04:41:17;;;;;;;4.90;3.05;;;;;;;24.48;45.51;100781.38;4965760;28;20057;-66
2023/07/16 04:43:43;;;;;;;6.68;3.10;;;;;;;24.47;45.46;100777.91;4967566;28;20501;-66
2023/07/16 04:46:09;;;;;;;5.18;3.28;;;;;;;24.49;45.37;100783.00;4965477;28;20047;-67
2023/07/16 04:48:34;;;;;;;5.63;2.85;;;;;;;24.50;45.38;100792.63;4974575;28;20026;-67
2023/07/16 04:51:00;;;;;;;3.90;2.42;;;;;;;24.46;45.34;100799.41;4967728;28;20055;-66
2023/07/16 04:53:25;;;;;;;5.53;2.92;;;;;;;24.47;45.52;100790.38;4967145;28;20043;-67
2023/07/16 04:55:51;;;;;;;4.22;2.95;;;;;;;24.46;45.38;100799.41;4969223;28;20524;-67
2023/07/16 04:58:17;;;;;;;5.22;2.97;;;;;;;24.46;45.34;100788.75;4986023;28;20039;-67
2023/07/16 05:00:43;;;;;;;5.43;3.25;;;;;;;24.44;45.62;100793.47;4970203;28;20580;-66
2023/07/16 05:03:08;;;;;;;5.35;2.88;;;;;;;24.46;45.38;100802.06;4966833;28;20077;-67
2023/07/16 05:05:34;;;;;;;5.10;2.83;;;;;;;24.40;45.65;100795.72;4969133;28;20224;-65
2023/07/16 05:08:00;;;;;;;5.43;2.70;;;;;;;24.47;45.44;100807.19;4967479;28;20050;-65
2023/07/16 05:10:27;;;;;;;4.60;2.75;;;;;;;24.46;45.39;100810.06;4972234;28;20042;-66
2023/07/16 05:12:52;;;;;;;4.15;2.65;;;;;;;24.44;45.45;100815.59;4969264;28;20042;-66
2023/07/16 05:15:18;;;;;;;5.82;2.95;;;;;;;24.44;45.56;100809.44;4983118;28;20041;-67
2023/07/16 05:17:44;;;;;;;4.00;2.75;;;;;;;24.44;45.56;100812.09;4968307;28;20061;-66
2023/07/16 05:20:09;;;;;;;5.10;2.78;;;;;;;24.44;45.54;100820.09;4967775;28;20043;-67
2023/07/16 05:22:35;;;;;;;4.68;2.90;;;;;;;24.44;45.57;100817.44;4971039;28;20090;-69
2023/07/16 05:25:01;;;;;;;5.60;2.80;;;;;;;24.43;45.32;100826.44;4970046;28;20038;-67
2023/07/16 05:27:27;;;;;;;4.05;2.75;;;;;;;24.42;45.40;100828.28;4971174;28;20030;-68
2023/07/16 05:29:53;;;;;;;7.75;2.80;;;;;;;24.44;45.20;100828.06;4972857;28;20356;-67
2023/07/16 05:32:18;;;;;;;3.33;2.42;;;;;;;24.43;45.39;100835.25;4971408;28;20469;-68
2023/07/16 05:34:44;;;;;;;5.60;2.95;;;;;;;24.44;45.20;100833.41;4966424;28;20051;-67
2023/07/16 05:37:09;;;;;;;5.05;2.67;;;;;;;24.44;45.39;100842.19;4969459;28;20083;-68
2023/07/16 05:39:35;;;;;;;5.60;3.53;;;;;;;24.46;45.37;100840.16;4966801;28;20513;-67
2023/07/16 05:42:02;;;;;;;4.72;2.58;;;;;;;24.47;45.27;100833.78;4971606;28;20045;-68
2023/07/16 05:44:28;;;;;;;5.03;2.78;;;;;;;24.48;45.15;100843.41;4965455;28;20043;-67
2023/07/16 05:46:54;;;;;;;5.22;2.50;;;;;;;24.49;45.26;100830.91;4971490;28;20146;-66
2023/07/16 05:49:19;;;;;;;5.60;3.00;;;;;;;24.48;45.10;100848.72;4964744;28;20054;-66
2023/07/16 05:51:45;;;;;;;5.97;3.60;;;;;;;24.48;45.08;100839.94;4967500;28;20046;-67
2023/07/16 05:54:10;;;;;;;5.97;2.80;;;;;;;24.49;45.20;100845.03;4968935;28;20470;-66
2023/07/16 05:56:36;;;;;;;4.60;2.83;;;;;;;24.50;45.08;100846.69;4965892;28;20047;-67
2023/07/16 05:59:01;;;;;;;4.03;2.80;;;;;;;24.49;45.15;100841.56;4968165;28;20042;-68
2023/07/16 06:01:27;;;;;;;7.30;3.15;;;;;;;24.52;45.14;100846.47;4966557;28;20039;-66
2023/07/16 06:03:53;;;;;;;4.90;3.13;;;;;;;24.53;45.07;100848.91;4969324;28;20042;-67
2023/07/16 06:06:19;;;;;;;5.00;3.15;;;;;;;24.53;45.19;100859.56;4966460;28;20049;-67
2023/07/16 06:08:44;;;;;;;4.78;2.70;;;;;;;24.55;45.13;100854.03;4970855;28;20031;-67
2023/07/16 06:11:10;;;;;;;5.45;2.80;;;;;;;24.58;45.04;100857.09;4967725;28;20478;-68
2023/07/16 06:13:35;;;;;;;4.93;2.90;;;;;;;24.58;45.15;100859.75;4965593;28;20042;-67
2023/07/16 06:16:01;;;;;;;3.33;2.63;;;;;;;24.59;45.02;100865.88;4970987;28;20713;-66
2023/07/16 06:18:26;;;;;;;6.57;3.15;;;;;;;24.64;44.72;100879.41;4969919;28;20480;-67
2023/07/16 06:20:52;;;;;;;4.03;2.60;;;;;;;24.65;44.85;100862.41;4968277;28;20038;-67
2023/07/16 06:23:18;;;;;;;5.68;2.80;;;;;;;24.63;45.05;100862.63;4966678;28;20073;-67
2023/07/16 06:25:44;;;;;;;4.40;2.67;;;;;;;24.66;44.83;100877.34;4963487;28;20043;-66
2023/07/16 06:28:10;;;;;;;5.03;3.25;;;;;;;24.70;44.78;100875.88;4966073;28;20221;-66
2023/07/16 06:30:37;;;;;;;5.03;2.90;;;;;;;24.68;44.95;100881.44;4967959;28;20149;-67
2023/07/16 06:33:02;;;;;;;5.28;2.80;;;;;;;24.73;44.65;100880.78;4968208;28;20051;-67
2023/07/16 06:35:28;;;;;;;5.13;2.78;;;;;;;24.74;44.56;100884.28;4968151;28;20706;-66
2023/07/16 06:37:53;;;;;;;4.88;2.83;;;;;;;24.76;44.54;100884.88;4968406;28;20042;-67
2023/07/16 06:40:19;;;;;;;5.55;2.97;;;;;;;24.79;44.55;100887.94;4968486;28;20057;-67
2023/07/16 06:42:44;;;;;;;4.00;2.70;;;;;;;24.80;44.62;100905.56;4967521;28;20065;-66
2023/07/16 06:45:10;;;;;;;5.00;2.53;;;;;;;24.80;44.63;100891.44;4968209;28;20050;-67
2023/07/16 06:47:35;;;;;;;4.70;2.97;;;;;;;24.82;44.61;100897.38;4966074;28;20046;-66
2023/07/16 06:50:01;;;;;;;4.40;2.78;;;;;;;24.82;44.36;100916.00;4967733;28;20055;-66
2023/07/16 06:52:27;;;;;;;5.13;3.00;;;;;;;24.83;44.42;100899.00;4970248;28;20040;-67
2023/07/16 06:54:56;;;;;;;4.13;2.53;;;;;;;24.82;44.36;100916.00;4967149;28;20679;-66
2023/07/16 06:57:22;;;;;;;5.57;2.85;;;;;;;24.83;44.24;100899.00;4967978;28;20038;-67
2023/07/16 06:59:48;;;;;;;3.47;2.63;;;;;;;24.87;44.32;100913.53;4966758;28;20042;-67
2023/07/16 07:02:13;;;;;;;5.55;2.75;;;;;;;24.90;44.23;100923.75;4966697;28;20034;-67
2023/07/16 07:04:39;;;;;;;6.35;3.17;;;;;;;24.84;44.01;100914.75;4966458;28;20069;-67
2023/07/16 07:07:04;;;;;;;5.72;3.00;;;;;;;24.86;44.12;100927.88;4980968;28;20042;-66
2023/07/16 07:09:30;;;;;;;5.85;2.97;;;;;;;24.82;43.93;100914.16;4965633;28;20046;-67
2023/07/16 07:11:56;;;;;;;5.28;2.80;;;;;;;24.85;44.17;100931.56;4968092;28;20059;-67
2023/07/16 07:14:21;;;;;;;5.78;2.97;;;;;;;24.83;44.17;100934.44;4966081;28;20042;-66
2023/07/16 07:16:47;;;;;;;6.13;3.10;;;;;;;24.83;43.96;100914.97;4967519;28;20042;-67
2023/07/16 07:19:12;;;;;;;5.55;3.08;;;;;;;24.85;44.45;100928.91;4969377;28;20381;-67
2023/07/16 07:21:38;;;;;;;4.80;3.08;;;;;;;24.87;44.05;100937.50;4966670;28;20039;-66
2023/07/16 07:24:03;;;;;;;5.40;3.20;;;;;;;24.89;43.97;100924.78;4968354;28;20046;-67
2023/07/16 07:26:29;;;;;;;5.20;3.00;;;;;;;24.89;44.11;100924.78;4966963;28;20042;-66
2023/07/16 07:28:54;;;;;;;5.30;3.03;;;;;;;24.88;43.88;100920.47;4969036;28;20046;-65
2023/07/16 07:31:20;;;;;;;4.57;3.13;;;;;;;24.88;43.98;100929.28;4965884;28;20202;-66
2023/07/16 07:33:45;;;;;;;3.78;2.70;;;;;;;24.90;44.42;100929.06;4982638;28;20047;-66
2023/07/16 07:36:11;;;;;;;5.47;2.90;;;;;;;24.87;44.79;100932.16;4965503;28;20500;-65
2023/07/16 07:38:36;;;;;;;11.15;2.58;;;;;;;24.85;45.13;100931.56;4968708;28;20387;-65
2023/07/16 07:41:04;;;;;;;5.35;2.95;;;;;;;24.82;45.46;100947.97;4965306;28;20042;-68
2023/07/16 07:43:29;;;;;;;4.15;3.05;;;;;;;24.84;45.25;100941.41;4968152;28;20042;-68
2023/07/16 07:45:55;;;;;;;4.93;2.88;;;;;;;24.91;45.24;100941.38;4966728;28;20105;-68
2023/07/16 07:48:21;;;;;;;5.28;3.05;;;;;;;24.93;44.94;100933.97;4964636;28;20039;-68
2023/07/16 07:50:47;;;;;;;5.95;3.28;;;;;;;24.95;44.80;100931.91;4966664;28;20058;-68
2023/07/16 07:53:14;;;;;;;7.28;3.33;;;;;;;24.94;44.82;100949.75;4967193;28;20062;-68
2023/07/16 07:55:39;;;;;;;6.18;3.00;;;;;;;24.94;44.90;100948.94;4970015;28;20046;-70
2023/07/16 07:58:05;;;;;;;5.45;2.90;;;;;;;24.95;44.78;100947.91;4971994;28;20055;-70
2023/07/16 08:00:30;;;;;;;6.68;3.67;;;;;;;24.94;44.85;100947.09;4974353;28;20093;-70
2023/07/16 08:02:56;;;;;;;8.20;3.25;;;;;;;24.96;44.97;100954.91;4965149;28;20046;-70
2023/07/16 08:05:22;;;;;;;6.80;3.40;;;;;;;24.90;44.42;100951.19;4967287;28;20557;-73
2023/07/16 08:07:47;;;;;;;7.95;3.97;;;;;;;24.69;44.08;100951.47;4971264;28;20489;-72
2023/07/16 08:10:13;;;;;;;8.00;3.00;;;;;;;24.65;43.60;100956.41;4968053;28;20043;-73
2023/07/16 08:12:38;;;;;;;10.90;3.67;;;;;;;24.59;43.50;100956.41;4969612;28;20085;-73
2023/07/16 08:15:05;;;;;;;8.65;3.75;;;;;;;24.56;43.39;100954.16;4970836;28;20855;-73
2023/07/16 08:17:31;;;;;;;14.25;3.92;;;;;;;24.48;43.38;100955.22;4970254;28;20062;-72
2023/07/16 08:19:56;;;;;;;8.18;3.85;;;;;;;24.50;42.88;100966.47;4970096;28;20045;-73
2023/07/16 08:22:23;;;;;;;7.13;3.92;;;;;;;24.47;42.71;100974.88;4969251;28;20050;-71
2023/07/16 08:24:50;;;;;;;6.93;3.85;;;;;;;24.40;42.59;100980.19;4977481;28;20069;-72
2023/07/16 08:27:16;;;;;;;8.07;3.63;;;;;;;24.35;42.46;100982.66;4975440;28;20047;-72
2023/07/16 08:29:42;;;;;;;7.75;3.60;;;;;;;24.33;42.48;100973.25;4977623;28;20089;-72
2023/07/16 08:32:07;;;;;;;11.30;4.00;;;;;;;24.34;42.21;100983.69;4976349;28;20038;-73
2023/07/16 08:34:33;;;;;;;5.57;3.50;;;;;;;24.36;42.28;100986.94;4976355;28;20751;-71
2023/07/16 08:36:58;;;;;;;5.43;3.38;;;;;;;24.32;42.33;100982.25;4979834;28;20039;-72
2023/07/16 08:39:24;;;;;;;6.38;4.00;;;;;;;24.30;42.18;100998.44;4975815;28;20042;-72
2023/07/16 08:41:50;;;;;;;6.32;3.35;;;;;;;24.32;42.51;100993.72;4974011;28;20486;-72
2023/07/16 08:44:16;;;;;;;12.00;4.03;;;;;;;24.38;42.75;101006.19;4976208;28;20038;-71
2023/07/16 08:46:42;;;;;;;5.40;3.42;;;;;;;24.45;42.87;101005.38;4975721;28;20042;-72
2023/07/16 08:49:09;;;;;;;6.80;3.28;;;;;;;24.50;42.99;101000.25;4976302;28;20092;-71
2023/07/16 08:51:34;;;;;;;5.40;3.42;;;;;;;24.50;43.03;100987.75;4978183;28;20050;-71
2023/07/16 08:54:00;;;;;;;7.10;3.63;;;;;;;24.48;43.01;100991.66;4975066;28;20105;-71
2023/07/16 08:56:27;;;;;;;4.75;3.75;;;;;;;24.47;43.02;100995.34;4981354;28;20058;-72
2023/07/16 08:58:58;;;;;;;8.43;3.58;;;;;;;24.56;42.75;101008.22;4981022;28;20038;-71
2023/07/16 09:01:24;;;;;;;5.53;3.28;;;;;;;24.55;42.82;100995.13;4977841;28;20493;-72
2023/07/16 09:03:49;;;;;;;5.20;3.22;;;;;;;24.62;42.72;100999.44;4977176;28;20112;-72
2023/07/16 09:06:15;;;;;;;6.97;3.58;;;;;;;24.62;42.98;101010.09;4978034;28;20069;-73
2023/07/16 09:08:41;;;;;;;7.78;3.30;;;;;;;24.61;42.71;100999.66;4979033;28;20066;-71
2023/07/16 09:11:13;;;;;;;6.47;3.78;;;;;;;24.61;42.97;100999.66;4980733;28;20050;-73
2023/07/16 09:13:44;;;;;;;6.75;3.83;;;;;;;24.65;42.76;101020.31;4976605;28;20442;-73
2023/07/16 09:16:09;;;;;;;8.77;3.92;;;;;;;24.72;42.80;101030.94;4971550;28;20042;-71
2023/07/16 09:18:35;;;;;;;10.32;3.92;;;;;;;24.73;43.09;101029.09;4971939;28;20053;-71
2023/07/16 09:21:02;;;;;;;7.00;3.80;;;;;;;24.73;43.13;101024.59;4975125;28;20046;-70
2023/07/16 09:23:30;;;;;;;7.22;3.78;;;;;;;24.76;43.28;101031.34;4970360;28;20071;-69
2023/07/16 09:25:57;;;;;;;7.07;3.65;;;;;;;24.76;43.07;101024.16;4971199;28;20050;-70
2023/07/16 09:28:22;;;;;;;9.20;3.88;;;;;;;24.78;43.08;101038.13;4973690;28;20074;-70
2023/07/16 09:30:49;;;;;;;6.55;3.67;;;;;;;24.77;43.24;101036.47;4975622;28;20042;-71
2023/07/16 09:33:18;;;;;;;5.47;3.58;;;;;;;24.79;43.31;101034.44;4970934;28;20098;-69
2023/07/16 09:35:44;;;;;;;6.65;3.40;;;;;;;24.80;43.38;101043.25;4970285;28;20034;-70
2023/07/16 09:38:10;;;;;;;5.80;3.25;;;;;;;24.75;43.08;101035.84;4968636;28;20134;-69
2023/07/16 09:40:37;;;;;;;8.07;3.38;;;;;;;24.81;43.52;101052.88;4968936;28;20049;-70
2023/07/16 09:43:03;;;;;;;9.82;3.60;;;;;;;24.81;43.21;101052.88;4971405;28;20072;-70
2023/07/16 09:45:29;;;;;;;6.35;3.30;;;;;;;24.81;43.50;101056.34;4972095;28;20149;-68
2023/07/16 09:47:54;;;;;;;6.30;3.55;;;;;;;24.81;43.44;101067.00;4968940;28;20027;-70
2023/07/16 09:50:30;;;;;;;10.77;3.83;;;;;;;24.83;43.20;101059.63;4970584;28;20081;-70
2023/07/16 09:52:57;;;;;;;5.82;3.63;;;;;;;24.80;43.25;101060.03;4968896;28;20039;-70
2023/07/16 09:55:24;;;;;;;5.50;3.28;;;;;;;24.84;43.28;101076.41;4969368;28;20125;-70
2023/07/16 09:57:52;;;;;;;6.18;3.55;;;;;;;24.82;43.53;101073.97;4969624;28;20047;-70
2023/07/16 10:00:20;;;;;;;6.30;3.38;;;;;;;24.85;43.77;101068.22;4971499;28;20049;-71
2023/07/16 10:02:46;;;;;;;5.75;3.42;;;;;;;24.85;43.28;101073.56;4971076;28;20528;-70
2023/07/16 10:05:23;;;;;;;5.90;3.30;;;;;;;24.86;43.39;101080.50;4971893;28;20049;-70
2023/07/16 10:08:18;;;;;;;5.85;3.65;;;;;;;24.85;43.30;101092.19;4969776;28;20167;-70
2023/07/16 10:11:01;;;;;;;4.95;3.33;;;;;;;24.86;43.36;101079.69;4968262;28;20054;-70
2023/07/16 10:13:27;;;;;;;5.32;3.00;;;;;;;24.86;43.57;101087.69;4967955;28;20074;-71
2023/07/16 10:15:53;;;;;;;4.90;3.33;;;;;;;24.86;43.30;101085.84;4963725;28;20049;-71
2023/07/16 10:18:33;;;;;;;5.30;3.42;;;;;;;24.84;43.51;101081.75;4966569;28;20038;-70
2023/07/16 10:21:07;;;;;;;3.90;3.13;;;;;;;24.87;43.51;101102.63;4965593;28;20038;-71
2023/07/16 10:23:43;;;;;;;5.57;3.58;;;;;;;24.86;43.61;101099.16;4969146;28;20050;-70
2023/07/16 10:26:14;;;;;;;4.43;2.88;;;;;;;24.86;43.65;101104.47;4967709;28;20049;-71
2023/07/16 10:28:40;;;;;;;5.13;3.17;;;;;;;24.86;43.54;101096.50;4967180;28;20063;-71
2023/07/16 10:31:07;;;;;;;6.60;3.55;;;;;;;24.88;43.54;101098.94;4969713;28;20051;-71
2023/07/16 10:33:33;;;;;;;6.25;3.45;;;;;;;24.89;43.26;101089.94;4969500;28;21581;-70
2023/07/16 10:36:00;;;;;;;5.97;3.70;;;;;;;24.88;41.99;101096.28;4965432;28;20110;-71
2023/07/16 10:38:25;;;;;;;6.88;3.65;;;;;;;24.74;41.76;101102.63;4969894;28;20128;-70
2023/07/16 10:40:51;;;;;;;5.72;3.60;;;;;;;24.63;41.83;101086.28;4970775;28;20613;-70
2023/07/16 10:43:17;;;;;;;6.93;3.72;;;;;;;24.57;41.85;101111.03;4967803;28;20039;-70
2023/07/16 10:45:42;;;;;;;6.05;3.97;;;;;;;24.53;42.03;101116.97;4968039;28;20046;-71
2023/07/16 10:48:08;;;;;;;6.32;4.00;;;;;;;24.49;42.12;101118.41;4969274;28;20398;-70
2023/07/16 10:50:35;;;;;;;7.22;3.95;;;;;;;24.45;42.03;101120.66;4966396;28;20066;-70
2023/07/16 10:53:01;;;;;;;6.60;3.90;;;;;;;24.38;42.04;101111.84;4968926;28;20042;-71
2023/07/16 10:55:28;;;;;;;8.05;4.45;;;;;;;24.39;42.12;101121.47;4968087;28;20581;-71
2023/07/16 10:57:56;;;;;;;9.05;3.55;;;;;;;24.39;42.21;101121.47;4968393;28;20054;-70
2023/07/16 11:00:22;;;;;;;6.28;3.92;;;;;;;24.36;42.23;101121.88;4969289;28;20043;-70
2023/07/16 11:02:50;;;;;;;7.22;3.65;;;;;;;24.32;42.47;101136.63;4966774;28;20467;-70
2023/07/16 11:05:16;;;;;;;6.53;3.80;;;;;;;24.30;42.21;101141.31;4967721;28;20043;-71
2023/07/16 11:07:47;;;;;;;8.02;3.97;;;;;;;24.31;42.23;101148.28;4967547;28;20046;-71
2023/07/16 11:10:15;;;;;;;8.07;3.47;;;;;;;24.31;42.18;101151.75;4972495;28;20662;-72
2023/07/16 11:12:41;;;;;;;7.82;3.85;;;;;;;24.25;42.17;101160.53;4973761;28;20042;-71
2023/07/16 11:15:08;;;;;;;10.55;3.80;;;;;;;24.31;42.37;101142.97;4969752;28;20489;-70
2023/07/16 11:17:33;;;;;;;7.10;3.42;;;;;;;24.49;42.27;101148.53;4966338;28;20038;-70
2023/07/16 11:20:00;;;;;;;8.95;4.00;;;;;;;24.57;42.45;101150.97;4967926;28;20508;-70